Craig, AK (99921)

11:16 PM AKDT on October 30, 2014 (GMT -0800)
Klawock | Change Station
CLOSE
Current Station
Airport
Location: Klawock,
Elevation: 79 ft
Nearby Weather Stations

Elev 79 ft 55.58 °N, 133.08 °W | Updated 23 minutes ago

Overcast
Overcast
36 °F
Feels Like 36 °F
N
0
Wind Variable Wind from North

Today
High -- | Low -- °F
--% Chance of Precip.
Yesterday
High -- | Low -- °F
Precip. -- in
7:54 AM 5:17 PM
First Quarter, 52% visible
Pressure 29.58 in
Visibility 4.0 miles
Clouds Few 2300 ft
Mostly Cloudy 4500 ft
Overcast 10000 ft
Dew Point 36 °F
Humidity 100%
Rainfall 1.58 in
Snow Depth Not available.
UV 0 out of 12
Pollen Not available.
Air Quality Not available.
Flu Activity Not available.
METAR PAKW 310653Z AUTO 00000KT 4SM BR FEW023 BKN045 OVC100 02/02 A2957 RMK AO2 SLP015 T00220022 TSNO $

More Conditions Fewer Conditions

Pressure 29.58 in
Visibility 4.0 miles
Clouds Few 2300 ft
Mostly Cloudy 4500 ft
Overcast 10000 ft
Dew Point 36 °F
Humidity 100%
Rainfall 1.58 in
Snow Depth Not available.
UV 0 out of 12
Pollen Not available.
Air Quality Not available.
Flu Activity Not available.
METAR PAKW 310653Z AUTO 00000KT 4SM BR FEW023 BKN045 OVC100 02/02 A2957 RMK AO2 SLP015 T00220022 TSNO $

More Conditions Fewer Conditions

10-Day Weather Forecast

Almanac

Astronomy

Oct. 30, 2014 Rise Set
Actual Time
Civil Twilight
Nautical Twilight
Astronomical Twilight
Moon
Length of Visible Light
Length of Day
Tomorrow will be .
, % of the Moon is Illuminated

Today's Extremes

State Highs State Lows

Community

WunderPhotos

Upload Photos

1,766,571 photos uploaded!

WunderBlogs® & News

Nearby

Air Quality

  Air Quality AQ Index Pollutant
Not available.

Snow Depth

Station Depth Elevation

Earthquake Activity

City Distance Mag. Time & Date
Minimum magnitude displayed is 2.5.

Coastal Water Temperatures

Place Temperature

Nearby Weather Stations